sensor_id;sensor_type;location;lat;lon;timestamp;P1;durP1;ratioP1;P2;durP2;ratioP2
53867;SDS011;41577;47.470;19.080;2023-02-01T00:00:04;15.15;;;5.45;;
53867;SDS011;41577;47.470;19.080;2023-02-01T00:00:18;13.57;;;5.57;;
53867;SDS011;41577;47.470;19.080;2023-02-01T00:00:29;11.95;;;5.45;;
53867;SDS011;41577;47.470;19.080;2023-02-01T00:00:40;11.38;;;5.13;;
53867;SDS011;41577;47.470;19.080;2023-02-01T00:00:51;11.88;;;5.20;;
53867;SDS011;41577;47.470;19.080;2023-02-01T00:01:05;13.55;;;5.35;;
53867;SDS011;41577;47.470;19.080;2023-02-01T00:01:16;14.48;;;5.55;;
53867;SDS011;41577;47.470;19.080;2023-02-01T00:01:28;13.20;;;5.63;;
53867;SDS011;41577;47.470;19.080;2023-02-01T00:01:39;14.10;;;5.60;;
53867;SDS011;41577;47.470;19.080;2023-02-01T00:01:50;14.77;;;5.70;;
53867;SDS011;41577;47.470;19.080;2023-02-01T00:02:02;13.15;;;5.70;;
53867;SDS011;41577;47.470;19.080;2023-02-01T00:02:13;11.40;;;5.63;;
53867;SDS011;41577;47.470;19.080;2023-02-01T00:02:24;12.20;;;5.30;;
53867;SDS011;41577;47.470;19.080;2023-02-01T00:02:35;11.57;;;5.00;;
53867;SDS011;41577;47.470;19.080;2023-02-01T00:02:46;13.07;;;5.43;;
53867;SDS011;41577;47.470;19.080;2023-02-01T00:02:57;13.32;;;5.65;;
53867;SDS011;41577;47.470;19.080;2023-02-01T00:03:08;14.48;;;5.90;;
53867;SDS011;41577;47.470;19.080;2023-02-01T00:03:19;15.60;;;5.75;;
53867;SDS011;41577;47.470;19.080;2023-02-01T00:03:30;15.68;;;5.80;;
53867;SDS011;41577;47.470;19.080;2023-02-01T00:03:41;14.88;;;5.68;;
53867;SDS011;41577;47.470;19.080;2023-02-01T00:03:52;13.68;;;5.50;;
53867;SDS011;41577;47.470;19.080;2023-02-01T00:04:02;14.57;;;5.45;;
53867;SDS011;41577;47.470;19.080;2023-02-01T00:04:13;14.70;;;5.75;;
53867;SDS011;41577;47.470;19.080;2023-02-01T00:04:24;15.43;;;6.05;;
53867;SDS011;41577;47.470;19.080;2023-02-01T00:04:36;14.13;;;5.75;;
53867;SDS011;41577;47.470;19.080;2023-02-01T00:04:47;16.70;;;5.63;;
53867;SDS011;41577;47.470;19.080;2023-02-01T00:04:58;16.83;;;5.72;;
53867;SDS011;41577;47.470;19.080;2023-02-01T00:05:09;16.23;;;5.65;;
53867;SDS011;41577;47.470;19.080;2023-02-01T00:05:20;14.38;;;5.43;;
53867;SDS011;41577;47.470;19.080;2023-02-01T00:05:31;16.48;;;5.78;;
53867;SDS011;41577;47.470;19.080;2023-02-01T00:05:42;16.30;;;6.03;;
53867;SDS011;41577;47.470;19.080;2023-02-01T00:05:56;15.35;;;6.40;;
53867;SDS011;41577;47.470;19.080;2023-02-01T00:06:07;13.30;;;6.45;;
53867;SDS011;41577;47.470;19.080;2023-02-01T00:06:18;12.43;;;5.97;;
53867;SDS011;41577;47.470;19.080;2023-02-01T00:06:29;13.57;;;5.80;;
53867;SDS011;41577;47.470;19.080;2023-02-01T00:06:40;13.60;;;5.65;;
53867;SDS011;41577;47.470;19.080;2023-02-01T00:06:52;15.38;;;6.00;;
53867;SDS011;41577;47.470;19.080;2023-02-01T00:07:03;16.88;;;6.53;;
53867;SDS011;41577;47.470;19.080;2023-02-01T00:07:13;18.23;;;6.93;;
53867;SDS011;41577;47.470;19.080;2023-02-01T00:07:25;18.88;;;6.95;;
53867;SDS011;41577;47.470;19.080;2023-02-01T00:07:36;15.93;;;6.40;;
53867;SDS011;41577;47.470;19.080;2023-02-01T00:07:47;12.75;;;5.88;;
53867;SDS011;41577;47.470;19.080;2023-02-01T00:07:58;11.38;;;5.53;;
53867;SDS011;41577;47.470;19.080;2023-02-01T00:08:11;14.40;;;5.88;;
53867;SDS011;41577;47.470;19.080;2023-02-01T00:08:21;17.23;;;6.28;;
53867;SDS011;41577;47.470;19.080;2023-02-01T00:08:32;18.27;;;6.70;;
53867;SDS011;41577;47.470;19.080;2023-02-01T00:08:43;17.93;;;7.00;;
53867;SDS011;41577;47.470;19.080;2023-02-01T00:08:54;17.23;;;6.78;;
53867;SDS011;41577;47.470;19.080;2023-02-01T00:09:05;16.38;;;6.55;;
53867;SDS011;41577;47.470;19.080;2023-02-01T00:09:16;16.42;;;6.32;;
53867;SDS011;41577;47.470;19.080;2023-02-01T00:09:27;15.15;;;5.88;;
53867;SDS011;41577;47.470;19.080;2023-02-01T00:09:38;15.90;;;5.70;;
53867;SDS011;41577;47.470;19.080;2023-02-01T00:09:49;14.52;;;5.55;;
53867;SDS011;41577;47.470;19.080;2023-02-01T00:10:00;16.23;;;5.78;;
53867;SDS011;41577;47.470;19.080;2023-02-01T00:10:11;15.80;;;5.97;;
53867;SDS011;41577;47.470;19.080;2023-02-01T00:10:21;14.90;;;5.80;;
53867;SDS011;41577;47.470;19.080;2023-02-01T00:10:33;12.43;;;5.47;;
53867;SDS011;41577;47.470;19.080;2023-02-01T00:10:44;14.13;;;5.47;;
53867;SDS011;41577;47.470;19.080;2023-02-01T00:10:58;13.20;;;5.45;;
53867;SDS011;41577;47.470;19.080;2023-02-01T00:11:10;14.55;;;5.60;;
53867;SDS011;41577;47.470;19.080;2023-02-01T00:11:22;16.20;;;5.88;;
53867;SDS011;41577;47.470;19.080;2023-02-01T00:11:33;15.52;;;5.85;;
53867;SDS011;41577;47.470;19.080;2023-02-01T00:11:44;13.63;;;5.60;;
53867;SDS011;41577;47.470;19.080;2023-02-01T00:11:55;14.30;;;5.50;;
53867;SDS011;41577;47.470;19.080;2023-02-01T00:12:06;14.30;;;5.70;;
53867;SDS011;41577;47.470;19.080;2023-02-01T00:12:17;13.98;;;5.78;;
53867;SDS011;41577;47.470;19.080;2023-02-01T00:12:28;14.10;;;5.78;;
53867;SDS011;41577;47.470;19.080;2023-02-01T00:12:39;15.68;;;6.03;;
53867;SDS011;41577;47.470;19.080;2023-02-01T00:12:50;16.83;;;6.10;;
53867;SDS011;41577;47.470;19.080;2023-02-01T00:13:00;17.17;;;6.10;;
53867;SDS011;41577;47.470;19.080;2023-02-01T00:13:11;18.83;;;6.13;;
53867;SDS011;41577;47.470;19.080;2023-02-01T00:13:22;17.02;;;5.72;;
53867;SDS011;41577;47.470;19.080;2023-02-01T00:13:34;14.32;;;5.50;;
53867;SDS011;41577;47.470;19.080;2023-02-01T00:13:46;13.73;;;5.50;;
53867;SDS011;41577;47.470;19.080;2023-02-01T00:13:58;16.15;;;6.03;;
53867;SDS011;41577;47.470;19.080;2023-02-01T00:14:10;17.27;;;6.38;;
53867;SDS011;41577;47.470;19.080;2023-02-01T00:14:21;16.17;;;6.03;;
53867;SDS011;41577;47.470;19.080;2023-02-01T00:14:33;13.75;;;5.90;;
53867;SDS011;41577;47.470;19.080;2023-02-01T00:14:43;14.27;;;5.68;;
53867;SDS011;41577;47.470;19.080;2023-02-01T00:14:54;11.40;;;4.93;;
53867;SDS011;41577;47.470;19.080;2023-02-01T00:15:06;13.45;;;5.07;;
53867;SDS011;41577;47.470;19.080;2023-02-01T00:15:19;13.60;;;5.32;;
53867;SDS011;41577;47.470;19.080;2023-02-01T00:15:30;13.75;;;5.68;;
53867;SDS011;41577;47.470;19.080;2023-02-01T00:15:41;12.32;;;5.38;;
53867;SDS011;41577;47.470;19.080;2023-02-01T00:15:53;12.90;;;5.38;;
53867;SDS011;41577;47.470;19.080;2023-02-01T00:16:05;13.88;;;5.28;;
53867;SDS011;41577;47.470;19.080;2023-02-01T00:16:17;13.13;;;5.30;;
53867;SDS011;41577;47.470;19.080;2023-02-01T00:16:29;15.27;;;5.53;;
53867;SDS011;41577;47.470;19.080;2023-02-01T00:16:41;14.60;;;5.60;;
53867;SDS011;41577;47.470;19.080;2023-02-01T00:16:52;14.50;;;5.47;;
53867;SDS011;41577;47.470;19.080;2023-02-01T00:17:04;11.95;;;5.22;;
53867;SDS011;41577;47.470;19.080;2023-02-01T00:17:16;14.20;;;5.28;;
53867;SDS011;41577;47.470;19.080;2023-02-01T00:17:27;13.55;;;5.25;;
53867;SDS011;41577;47.470;19.080;2023-02-01T00:17:38;14.15;;;5.45;;
53867;SDS011;41577;47.470;19.080;2023-02-01T00:17:52;13.23;;;5.40;;
53867;SDS011;41577;47.470;19.080;2023-02-01T00:18:03;12.77;;;5.65;;
53867;SDS011;41577;47.470;19.080;2023-02-01T00:18:14;13.93;;;5.65;;
53867;SDS011;41577;47.470;19.080;2023-02-01T00:18:24;15.13;;;6.22;;
53867;SDS011;41577;47.470;19.080;2023-02-01T00:18:35;15.48;;;6.05;;
53867;SDS011;41577;47.470;19.080;2023-02-01T00:18:47;13.93;;;6.00;;
53867;SDS011;41577;47.470;19.080;2023-02-01T00:19:00;15.40;;;5.50;;
53867;SDS011;41577;47.470;19.080;2023-02-01T00:19:13;15.80;;;5.70;;
53867;SDS011;41577;47.470;19.080;2023-02-01T00:19:24;15.05;;;5.63;;
53867;SDS011;41577;47.470;19.080;2023-02-01T00:19:35;12.38;;;5.63;;
53867;SDS011;41577;47.470;19.080;2023-02-01T00:19:46;11.75;;;5.53;;
53867;SDS011;41577;47.470;19.080;2023-02-01T00:19:57;13.05;;;5.80;;
53867;SDS011;41577;47.470;19.080;2023-02-01T00:20:08;15.05;;;5.75;;
53867;SDS011;41577;47.470;19.080;2023-02-01T00:20:20;15.85;;;5.63;;
53867;SDS011;41577;47.470;19.080;2023-02-01T00:20:31;14.65;;;5.68;;
53867;SDS011;41577;47.470;19.080;2023-02-01T00:20:44;12.90;;;5.60;;
53867;SDS011;41577;47.470;19.080;2023-02-01T00:20:55;14.43;;;6.20;;
53867;SDS011;41577;47.470;19.080;2023-02-01T00:21:06;15.38;;;6.32;;
53867;SDS011;41577;47.470;19.080;2023-02-01T00:21:17;16.02;;;6.32;;
53867;SDS011;41577;47.470;19.080;2023-02-01T00:21:29;14.13;;;5.82;;
53867;SDS011;41577;47.470;19.080;2023-02-01T00:21:41;14.90;;;5.75;;
53867;SDS011;41577;47.470;19.080;2023-02-01T00:21:52;16.08;;;5.60;;
53867;SDS011;41577;47.470;19.080;2023-02-01T00:22:03;18.02;;;5.82;;
53867;SDS011;41577;47.470;19.080;2023-02-01T00:22:15;15.65;;;5.90;;
53867;SDS011;41577;47.470;19.080;2023-02-01T00:22:26;15.32;;;6.00;;
53867;SDS011;41577;47.470;19.080;2023-02-01T00:22:37;14.73;;;6.07;;
53867;SDS011;41577;47.470;19.080;2023-02-01T00:22:48;15.95;;;5.50;;
53867;SDS011;41577;47.470;19.080;2023-02-01T00:22:58;12.77;;;5.18;;
53867;SDS011;41577;47.470;19.080;2023-02-01T00:23:09;13.23;;;5.28;;
53867;SDS011;41577;47.470;19.080;2023-02-01T00:23:20;12.80;;;5.60;;
53867;SDS011;41577;47.470;19.080;2023-02-01T00:23:31;12.05;;;5.55;;
53867;SDS011;41577;47.470;19.080;2023-02-01T00:23:42;10.85;;;5.35;;
53867;SDS011;41577;47.470;19.080;2023-02-01T00:23:53;11.98;;;5.68;;
53867;SDS011;41577;47.470;19.080;2023-02-01T00:24:05;11.85;;;5.57;;
53867;SDS011;41577;47.470;19.080;2023-02-01T00:24:16;12.20;;;5.32;;
53867;SDS011;41577;47.470;19.080;2023-02-01T00:24:27;13.70;;;5.35;;
53867;SDS011;41577;47.470;19.080;2023-02-01T00:24:39;18.02;;;5.55;;
53867;SDS011;41577;47.470;19.080;2023-02-01T00:24:50;20.75;;;5.63;;
53867;SDS011;41577;47.470;19.080;2023-02-01T00:25:01;22.27;;;5.72;;
53867;SDS011;41577;47.470;19.080;2023-02-01T00:25:13;18.58;;;5.60;;
53867;SDS011;41577;47.470;19.080;2023-02-01T00:25:24;13.43;;;5.28;;
53867;SDS011;41577;47.470;19.080;2023-02-01T00:25:35;13.65;;;5.45;;
53867;SDS011;41577;47.470;19.080;2023-02-01T00:25:47;11.55;;;5.15;;
53867;SDS011;41577;47.470;19.080;2023-02-01T00:25:59;13.18;;;5.55;;
53867;SDS011;41577;47.470;19.080;2023-02-01T00:26:12;14.25;;;5.65;;
53867;SDS011;41577;47.470;19.080;2023-02-01T00:26:26;14.88;;;5.38;;
53867;SDS011;41577;47.470;19.080;2023-02-01T00:26:43;13.57;;;4.97;;
53867;SDS011;41577;47.470;19.080;2023-02-01T00:26:55;12.05;;;4.88;;
53867;SDS011;41577;47.470;19.080;2023-02-01T00:27:06;11.63;;;4.75;;
53867;SDS011;41577;47.470;19.080;2023-02-01T00:27:17;12.02;;;4.50;;
53867;SDS011;41577;47.470;19.080;2023-02-01T00:27:28;13.07;;;4.90;;
53867;SDS011;41577;47.470;19.080;2023-02-01T00:27:38;13.63;;;5.47;;
53867;SDS011;41577;47.470;19.080;2023-02-01T00:27:49;12.35;;;5.53;;
53867;SDS011;41577;47.470;19.080;2023-02-01T00:28:00;13.45;;;5.25;;
53867;SDS011;41577;47.470;19.080;2023-02-01T00:28:11;14.32;;;4.82;;
53867;SDS011;41577;47.470;19.080;2023-02-01T00:28:22;15.85;;;5.10;;
53867;SDS011;41577;47.470;19.080;2023-02-01T00:28:33;14.50;;;5.00;;
53867;SDS011;41577;47.470;19.080;2023-02-01T00:28:44;15.13;;;5.05;;
53867;SDS011;41577;47.470;19.080;2023-02-01T00:28:55;15.00;;;4.88;;
53867;SDS011;41577;47.470;19.080;2023-02-01T00:29:07;13.27;;;5.05;;
53867;SDS011;41577;47.470;19.080;2023-02-01T00:29:20;12.95;;;4.95;;
53867;SDS011;41577;47.470;19.080;2023-02-01T00:29:31;12.30;;;4.93;;
53867;SDS011;41577;47.470;19.080;2023-02-01T00:29:42;11.27;;;4.85;;
53867;SDS011;41577;47.470;19.080;2023-02-01T00:29:53;14.00;;;4.88;;
53867;SDS011;41577;47.470;19.080;2023-02-01T00:30:05;14.77;;;4.82;;
53867;SDS011;41577;47.470;19.080;2023-02-01T00:30:17;16.75;;;5.03;;
53867;SDS011;41577;47.470;19.080;2023-02-01T00:30:28;13.60;;;5.00;;
53867;SDS011;41577;47.470;19.080;2023-02-01T00:30:40;11.75;;;5.03;;
53867;SDS011;41577;47.470;19.080;2023-02-01T00:30:55;10.63;;;4.78;;
53867;SDS011;41577;47.470;19.080;2023-02-01T00:31:06;10.60;;;4.50;;
53867;SDS011;41577;47.470;19.080;2023-02-01T00:31:17;9.90;;;4.30;;
53867;SDS011;41577;47.470;19.080;2023-02-01T00:31:28;10.10;;;4.20;;
53867;SDS011;41577;47.470;19.080;2023-02-01T00:31:39;11.65;;;4.57;;
53867;SDS011;41577;47.470;19.080;2023-02-01T00:31:51;13.60;;;4.90;;
53867;SDS011;41577;47.470;19.080;2023-02-01T00:32:03;10.80;;;4.80;;
53867;SDS011;41577;47.470;19.080;2023-02-01T00:32:14;11.98;;;4.80;;
53867;SDS011;41577;47.470;19.080;2023-02-01T00:32:26;13.88;;;4.82;;
53867;SDS011;41577;47.470;19.080;2023-02-01T00:32:37;15.65;;;4.90;;
53867;SDS011;41577;47.470;19.080;2023-02-01T00:32:48;14.73;;;4.60;;
53867;SDS011;41577;47.470;19.080;2023-02-01T00:32:59;13.15;;;4.60;;
53867;SDS011;41577;47.470;19.080;2023-02-01T00:33:10;12.70;;;4.45;;
53867;SDS011;41577;47.470;19.080;2023-02-01T00:33:21;12.30;;;4.57;;
53867;SDS011;41577;47.470;19.080;2023-02-01T00:33:32;11.60;;;4.70;;
53867;SDS011;41577;47.470;19.080;2023-02-01T00:33:46;11.48;;;4.82;;
53867;SDS011;41577;47.470;19.080;2023-02-01T00:33:57;10.38;;;4.50;;
53867;SDS011;41577;47.470;19.080;2023-02-01T00:34:09;10.98;;;4.38;;
53867;SDS011;41577;47.470;19.080;2023-02-01T00:34:21;11.35;;;4.97;;
53867;SDS011;41577;47.470;19.080;2023-02-01T00:34:32;13.57;;;5.20;;
53867;SDS011;41577;47.470;19.080;2023-02-01T00:34:43;10.85;;;5.18;;
53867;SDS011;41577;47.470;19.080;2023-02-01T00:34:54;10.30;;;4.70;;
53867;SDS011;41577;47.470;19.080;2023-02-01T00:35:05;9.60;;;4.82;;
53867;SDS011;41577;47.470;19.080;2023-02-01T00:35:18;11.52;;;4.65;;
53867;SDS011;41577;47.470;19.080;2023-02-01T00:35:29;13.63;;;4.72;;
53867;SDS011;41577;47.470;19.080;2023-02-01T00:35:41;15.02;;;4.78;;
53867;SDS011;41577;47.470;19.080;2023-02-01T00:35:55;14.13;;;4.95;;
53867;SDS011;41577;47.470;19.080;2023-02-01T00:36:07;13.00;;;5.22;;
53867;SDS011;41577;47.470;19.080;2023-02-01T00:36:19;12.88;;;5.18;;
53867;SDS011;41577;47.470;19.080;2023-02-01T00:36:30;12.88;;;4.85;;
53867;SDS011;41577;47.470;19.080;2023-02-01T00:36:41;12.25;;;4.85;;
53867;SDS011;41577;47.470;19.080;2023-02-01T00:36:53;12.50;;;4.85;;
53867;SDS011;41577;47.470;19.080;2023-02-01T00:37:04;12.45;;;4.97;;
53867;SDS011;41577;47.470;19.080;2023-02-01T00:37:15;12.35;;;4.90;;
53867;SDS011;41577;47.470;19.080;2023-02-01T00:37:27;11.15;;;4.70;;
53867;SDS011;41577;47.470;19.080;2023-02-01T00:37:38;11.43;;;4.40;;
53867;SDS011;41577;47.470;19.080;2023-02-01T00:37:49;13.02;;;4.57;;
53867;SDS011;41577;47.470;19.080;2023-02-01T00:38:00;13.15;;;4.68;;
53867;SDS011;41577;47.470;19.080;2023-02-01T00:38:11;11.34;;;4.48;;
53867;SDS011;41577;47.470;19.080;2023-02-01T00:38:21;10.63;;;4.53;;
53867;SDS011;41577;47.470;19.080;2023-02-01T00:38:33;9.95;;;4.43;;
53867;SDS011;41577;47.470;19.080;2023-02-01T00:38:46;9.93;;;4.40;;
53867;SDS011;41577;47.470;19.080;2023-02-01T00:38:57;10.88;;;4.75;;
53867;SDS011;41577;47.470;19.080;2023-02-01T00:39:08;11.03;;;5.03;;
53867;SDS011;41577;47.470;19.080;2023-02-01T00:39:19;12.13;;;5.05;;
53867;SDS011;41577;47.470;19.080;2023-02-01T00:39:30;10.93;;;4.80;;
53867;SDS011;41577;47.470;19.080;2023-02-01T00:39:41;10.93;;;4.72;;
53867;SDS011;41577;47.470;19.080;2023-02-01T00:39:52;9.57;;;4.65;;
53867;SDS011;41577;47.470;19.080;2023-02-01T00:40:04;10.93;;;4.57;;
53867;SDS011;41577;47.470;19.080;2023-02-01T00:40:15;11.23;;;4.53;;
53867;SDS011;41577;47.470;19.080;2023-02-01T00:40:26;10.57;;;4.53;;
53867;SDS011;41577;47.470;19.080;2023-02-01T00:40:37;9.53;;;4.30;;
53867;SDS011;41577;47.470;19.080;2023-02-01T00:40:48;9.23;;;4.28;;
53867;SDS011;41577;47.470;19.080;2023-02-01T00:41:03;9.60;;;4.10;;
53867;SDS011;41577;47.470;19.080;2023-02-01T00:41:16;10.88;;;4.47;;
53867;SDS011;41577;47.470;19.080;2023-02-01T00:41:28;11.07;;;4.65;;
53867;SDS011;41577;47.470;19.080;2023-02-01T00:41:39;11.22;;;4.68;;
53867;SDS011;41577;47.470;19.080;2023-02-01T00:41:50;10.80;;;4.77;;
53867;SDS011;41577;47.470;19.080;2023-02-01T00:42:01;10.88;;;5.13;;
53867;SDS011;41577;47.470;19.080;2023-02-01T00:42:12;9.70;;;4.88;;
53867;SDS011;41577;47.470;19.080;2023-02-01T00:42:24;12.18;;;4.88;;
53867;SDS011;41577;47.470;19.080;2023-02-01T00:42:34;11.50;;;4.57;;
53867;SDS011;41577;47.470;19.080;2023-02-01T00:42:45;12.60;;;4.63;;
53867;SDS011;41577;47.470;19.080;2023-02-01T00:42:56;12.45;;;4.55;;
53867;SDS011;41577;47.470;19.080;2023-02-01T00:43:07;13.60;;;4.78;;
53867;SDS011;41577;47.470;19.080;2023-02-01T00:43:19;12.73;;;4.63;;
53867;SDS011;41577;47.470;19.080;2023-02-01T00:43:30;12.77;;;4.40;;
53867;SDS011;41577;47.470;19.080;2023-02-01T00:43:42;12.65;;;4.22;;
53867;SDS011;41577;47.470;19.080;2023-02-01T00:43:53;12.88;;;4.43;;
53867;SDS011;41577;47.470;19.080;2023-02-01T00:44:06;11.60;;;4.60;;
53867;SDS011;41577;47.470;19.080;2023-02-01T00:44:17;11.60;;;4.55;;
53867;SDS011;41577;47.470;19.080;2023-02-01T00:44:28;8.85;;;4.28;;
53867;SDS011;41577;47.470;19.080;2023-02-01T00:44:39;10.52;;;4.20;;
53867;SDS011;41577;47.470;19.080;2023-02-01T00:44:51;10.95;;;4.32;;
53867;SDS011;41577;47.470;19.080;2023-02-01T00:45:02;12.27;;;4.50;;
53867;SDS011;41577;47.470;19.080;2023-02-01T00:45:13;10.80;;;4.50;;
53867;SDS011;41577;47.470;19.080;2023-02-01T00:45:24;10.10;;;4.38;;
53867;SDS011;41577;47.470;19.080;2023-02-01T00:45:35;8.50;;;4.10;;
53867;SDS011;41577;47.470;19.080;2023-02-01T00:45:46;9.40;;;3.92;;
53867;SDS011;41577;47.470;19.080;2023-02-01T00:45:57;10.52;;;3.90;;
53867;SDS011;41577;47.470;19.080;2023-02-01T00:46:08;11.18;;;3.92;;
53867;SDS011;41577;47.470;19.080;2023-02-01T00:46:19;11.15;;;4.32;;
53867;SDS011;41577;47.470;19.080;2023-02-01T00:46:30;12.20;;;4.70;;
53867;SDS011;41577;47.470;19.080;2023-02-01T00:46:42;11.63;;;4.55;;
53867;SDS011;41577;47.470;19.080;2023-02-01T00:46:52;12.50;;;4.73;;
53867;SDS011;41577;47.470;19.080;2023-02-01T00:47:05;12.43;;;4.60;;
53867;SDS011;41577;47.470;19.080;2023-02-01T00:47:15;10.93;;;4.28;;
53867;SDS011;41577;47.470;19.080;2023-02-01T00:47:27;10.93;;;4.28;;
53867;SDS011;41577;47.470;19.080;2023-02-01T00:47:37;10.03;;;4.17;;
53867;SDS011;41577;47.470;19.080;2023-02-01T00:47:48;10.30;;;4.13;;
53867;SDS011;41577;47.470;19.080;2023-02-01T00:47:59;12.05;;;4.13;;
53867;SDS011;41577;47.470;19.080;2023-02-01T00:48:10;13.15;;;4.07;;
53867;SDS011;41577;47.470;19.080;2023-02-01T00:48:21;12.98;;;4.25;;
53867;SDS011;41577;47.470;19.080;2023-02-01T00:48:32;11.60;;;4.40;;
53867;SDS011;41577;47.470;19.080;2023-02-01T00:48:44;10.10;;;4.35;;
53867;SDS011;41577;47.470;19.080;2023-02-01T00:48:55;10.38;;;4.35;;
53867;SDS011;41577;47.470;19.080;2023-02-01T00:49:06;12.45;;;4.43;;
53867;SDS011;41577;47.470;19.080;2023-02-01T00:49:16;13.55;;;5.15;;
53867;SDS011;41577;47.470;19.080;2023-02-01T00:49:27;14.10;;;5.13;;
53867;SDS011;41577;47.470;19.080;2023-02-01T00:49:39;12.60;;;4.90;;
53867;SDS011;41577;47.470;19.080;2023-02-01T00:49:50;10.32;;;4.18;;
53867;SDS011;41577;47.470;19.080;2023-02-01T00:50:01;9.55;;;4.25;;
53867;SDS011;41577;47.470;19.080;2023-02-01T00:50:13;9.40;;;4.22;;
53867;SDS011;41577;47.470;19.080;2023-02-01T00:50:25;7.63;;;3.90;;
53867;SDS011;41577;47.470;19.080;2023-02-01T00:50:36;8.95;;;4.32;;
53867;SDS011;41577;47.470;19.080;2023-02-01T00:50:51;10.48;;;4.25;;
53867;SDS011;41577;47.470;19.080;2023-02-01T00:51:03;11.07;;;4.10;;
53867;SDS011;41577;47.470;19.080;2023-02-01T00:51:16;11.20;;;3.80;;
53867;SDS011;41577;47.470;19.080;2023-02-01T00:51:29;12.25;;;3.88;;
53867;SDS011;41577;47.470;19.080;2023-02-01T00:51:40;11.85;;;3.83;;
53867;SDS011;41577;47.470;19.080;2023-02-01T00:51:51;13.20;;;3.92;;
53867;SDS011;41577;47.470;19.080;2023-02-01T00:52:03;13.80;;;4.30;;
53867;SDS011;41577;47.470;19.080;2023-02-01T00:52:14;13.07;;;4.55;;
53867;SDS011;41577;47.470;19.080;2023-02-01T00:52:25;11.55;;;4.30;;
53867;SDS011;41577;47.470;19.080;2023-02-01T00:52:36;8.88;;;3.72;;
53867;SDS011;41577;47.470;19.080;2023-02-01T00:52:46;9.38;;;3.72;;
53867;SDS011;41577;47.470;19.080;2023-02-01T00:52:57;8.47;;;3.63;;
53867;SDS011;41577;47.470;19.080;2023-02-01T00:53:08;9.05;;;3.90;;
53867;SDS011;41577;47.470;19.080;2023-02-01T00:53:19;9.60;;;3.97;;
53867;SDS011;41577;47.470;19.080;2023-02-01T00:53:31;11.07;;;4.15;;
53867;SDS011;41577;47.470;19.080;2023-02-01T00:53:43;10.25;;;4.00;;
53867;SDS011;41577;47.470;19.080;2023-02-01T00:53:54;8.88;;;4.00;;
53867;SDS011;41577;47.470;19.080;2023-02-01T00:54:05;9.30;;;4.18;;
53867;SDS011;41577;47.470;19.080;2023-02-01T00:54:16;8.93;;;4.20;;
53867;SDS011;41577;47.470;19.080;2023-02-01T00:54:27;8.13;;;4.03;;
53867;SDS011;41577;47.470;19.080;2023-02-01T00:54:38;9.43;;;4.07;;
53867;SDS011;41577;47.470;19.080;2023-02-01T00:54:49;12.30;;;3.90;;
53867;SDS011;41577;47.470;19.080;2023-02-01T00:55:00;11.38;;;4.13;;
53867;SDS011;41577;47.470;19.080;2023-02-01T00:55:10;10.20;;;3.85;;
53867;SDS011;41577;47.470;19.080;2023-02-01T00:55:22;9.40;;;3.80;;
53867;SDS011;41577;47.470;19.080;2023-02-01T00:55:33;9.75;;;3.60;;
53867;SDS011;41577;47.470;19.080;2023-02-01T00:55:45;11.32;;;3.75;;
53867;SDS011;41577;47.470;19.080;2023-02-01T00:55:56;11.48;;;3.97;;
53867;SDS011;41577;47.470;19.080;2023-02-01T00:56:07;9.73;;;4.15;;
53867;SDS011;41577;47.470;19.080;2023-02-01T00:56:18;8.85;;;3.88;;
53867;SDS011;41577;47.470;19.080;2023-02-01T00:56:30;8.20;;;3.70;;
53867;SDS011;41577;47.470;19.080;2023-02-01T00:56:41;7.50;;;3.67;;
53867;SDS011;41577;47.470;19.080;2023-02-01T00:56:52;7.75;;;3.83;;
53867;SDS011;41577;47.470;19.080;2023-02-01T00:57:02;8.68;;;4.05;;
53867;SDS011;41577;47.470;19.080;2023-02-01T00:57:14;10.88;;;4.10;;
53867;SDS011;41577;47.470;19.080;2023-02-01T00:57:24;10.05;;;3.83;;
53867;SDS011;41577;47.470;19.080;2023-02-01T00:57:36;9.88;;;3.85;;
53867;SDS011;41577;47.470;19.080;2023-02-01T00:57:47;8.45;;;3.75;;
53867;SDS011;41577;47.470;19.080;2023-02-01T00:57:58;9.25;;;3.70;;
53867;SDS011;41577;47.470;19.080;2023-02-01T00:58:09;9.93;;;3.85;;
53867;SDS011;41577;47.470;19.080;2023-02-01T00:58:20;13.18;;;3.85;;
53867;SDS011;41577;47.470;19.080;2023-02-01T00:58:31;15.88;;;4.03;;
53867;SDS011;41577;47.470;19.080;2023-02-01T00:58:42;14.13;;;3.70;;
53867;SDS011;41577;47.470;19.080;2023-02-01T00:58:53;11.05;;;3.40;;
53867;SDS011;41577;47.470;19.080;2023-02-01T00:59:04;8.73;;;3.33;;
53867;SDS011;41577;47.470;19.080;2023-02-01T00:59:16;9.25;;;3.42;;
53867;SDS011;41577;47.470;19.080;2023-02-01T00:59:27;9.25;;;3.58;;
53867;SDS011;41577;47.470;19.080;2023-02-01T00:59:39;16.05;;;4.05;;
53867;SDS011;41577;47.470;19.080;2023-02-01T00:59:50;17.13;;;4.38;;
53867;SDS011;41577;47.470;19.080;2023-02-01T01:00:01;13.15;;;4.13;;
53867;SDS011;41577;47.470;19.080;2023-02-01T01:00:13;11.43;;;3.88;;
53867;SDS011;41577;47.470;19.080;2023-02-01T01:00:26;10.30;;;3.83;;
53867;SDS011;41577;47.470;19.080;2023-02-01T01:00:37;8.05;;;3.70;;
53867;SDS011;41577;47.470;19.080;2023-02-01T01:00:48;6.60;;;3.40;;
53867;SDS011;41577;47.470;19.080;2023-02-01T01:01:03;5.93;;;3.15;;
53867;SDS011;41577;47.470;19.080;2023-02-01T01:01:16;5.75;;;2.95;;
53867;SDS011;41577;47.470;19.080;2023-02-01T01:01:28;7.80;;;3.15;;
53867;SDS011;41577;47.470;19.080;2023-02-01T01:01:39;9.06;;;3.50;;
53867;SDS011;41577;47.470;19.080;2023-02-01T01:01:50;8.40;;;3.60;;
53867;SDS011;41577;47.470;19.080;2023-02-01T01:02:01;6.82;;;3.33;;
53867;SDS011;41577;47.470;19.080;2023-02-01T01:02:13;7.97;;;3.27;;
53867;SDS011;41577;47.470;19.080;2023-02-01T01:02:25;8.82;;;3.65;;
53867;SDS011;41577;47.470;19.080;2023-02-01T01:02:36;11.40;;;4.00;;
53867;SDS011;41577;47.470;19.080;2023-02-01T01:02:47;9.60;;;3.83;;
53867;SDS011;41577;47.470;19.080;2023-02-01T01:02:59;9.18;;;3.60;;
53867;SDS011;41577;47.470;19.080;2023-02-01T01:03:10;11.02;;;3.70;;
53867;SDS011;41577;47.470;19.080;2023-02-01T01:03:21;12.10;;;3.70;;
53867;SDS011;41577;47.470;19.080;2023-02-01T01:03:32;11.43;;;3.47;;
53867;SDS011;41577;47.470;19.080;2023-02-01T01:03:45;7.22;;;3.30;;
53867;SDS011;41577;47.470;19.080;2023-02-01T01:03:58;9.20;;;3.38;;
53867;SDS011;41577;47.470;19.080;2023-02-01T01:04:09;9.02;;;3.47;;
53867;SDS011;41577;47.470;19.080;2023-02-01T01:04:20;8.85;;;3.60;;
53867;SDS011;41577;47.470;19.080;2023-02-01T01:04:33;7.20;;;3.40;;
53867;SDS011;41577;47.470;19.080;2023-02-01T01:04:44;7.47;;;3.30;;
53867;SDS011;41577;47.470;19.080;2023-02-01T01:04:55;6.85;;;3.00;;
53867;SDS011;41577;47.470;19.080;2023-02-01T01:05:06;6.97;;;3.35;;
53867;SDS011;41577;47.470;19.080;2023-02-01T01:05:17;6.70;;;3.28;;
53867;SDS011;41577;47.470;19.080;2023-02-01T01:05:28;6.53;;;3.53;;
53867;SDS011;41577;47.470;19.080;2023-02-01T01:05:39;6.55;;;3.40;;
53867;SDS011;41577;47.470;19.080;2023-02-01T01:05:49;6.35;;;3.40;;
53867;SDS011;41577;47.470;19.080;2023-02-01T01:06:01;6.17;;;3.23;;
53867;SDS011;41577;47.470;19.080;2023-02-01T01:06:14;6.90;;;3.28;;
53867;SDS011;41577;47.470;19.080;2023-02-01T01:06:27;7.78;;;3.22;;
53867;SDS011;41577;47.470;19.080;2023-02-01T01:06:39;7.30;;;3.20;;
53867;SDS011;41577;47.470;19.080;2023-02-01T01:06:50;6.75;;;3.10;;